createdAt,value
2023-02-19T00:01:49.031Z,11.90
2023-02-19T00:04:19.073Z,12.55
2023-02-19T00:06:46.678Z,11.30
2023-02-19T00:09:15.217Z,12.15
2023-02-19T00:11:43.315Z,11.00
2023-02-19T00:14:14.923Z,11.55
2023-02-19T00:16:41.942Z,11.07
2023-02-19T00:19:13.473Z,12.77
2023-02-19T00:21:40.412Z,11.80
2023-02-19T00:24:10.638Z,11.05
2023-02-19T00:26:39.912Z,12.05
2023-02-19T00:29:09.344Z,11.00
2023-02-19T00:31:36.604Z,11.10
2023-02-19T00:34:05.947Z,10.95
2023-02-19T00:36:36.524Z,12.00
2023-02-19T00:39:04.985Z,11.75
2023-02-19T00:41:32.066Z,12.30
2023-02-19T00:44:01.496Z,12.27
2023-02-19T00:46:31.710Z,11.98
2023-02-19T00:48:58.847Z,11.25
2023-02-19T00:51:28.328Z,12.13
2023-02-19T00:53:56.688Z,11.85
2023-02-19T00:56:23.783Z,10.82
2023-02-19T00:58:51.630Z,10.88
2023-02-19T01:01:19.537Z,11.13
2023-02-19T01:03:47.143Z,10.13
2023-02-19T01:06:16.377Z,11.02
2023-02-19T01:08:43.768Z,11.57
2023-02-19T01:11:11.874Z,10.80
2023-02-19T01:13:40.364Z,11.65
2023-02-19T01:16:19.685Z,10.63
2023-02-19T01:18:47.845Z,11.27
2023-02-19T01:21:20.236Z,10.98
2023-02-19T01:23:48.009Z,12.05
2023-02-19T01:26:18.129Z,11.80
2023-02-19T01:28:46.212Z,11.23
2023-02-19T01:31:16.545Z,12.18
2023-02-19T01:33:48.644Z,11.27
2023-02-19T01:36:16.385Z,11.95
2023-02-19T01:38:44.503Z,11.55
2023-02-19T01:41:15.746Z,13.70
2023-02-19T01:44:11.379Z,13.07
2023-02-19T01:46:43.390Z,11.77
2023-02-19T01:49:26.540Z,10.30
2023-02-19T01:52:08.070Z,11.45
2023-02-19T01:54:37.501Z,10.52
2023-02-19T01:57:08.084Z,11.52
2023-02-19T01:59:35.192Z,10.43
2023-02-19T02:02:02.370Z,10.20
2023-02-19T02:04:32.955Z,10.32
2023-02-19T02:07:02.353Z,10.27
2023-02-19T02:09:49.561Z,10.65
2023-02-19T02:12:16.488Z,9.80
2023-02-19T02:14:47.257Z,11.23
2023-02-19T02:17:49.324Z,10.73
2023-02-19T02:20:33.720Z,12.00
2023-02-19T02:23:16.516Z,10.93
2023-02-19T02:25:55.402Z,11.52
2023-02-19T02:28:46.676Z,11.43
2023-02-19T02:31:21.594Z,11.88
2023-02-19T02:34:01.517Z,13.82
2023-02-19T02:36:34.086Z,12.38
2023-02-19T02:39:05.134Z,14.30
2023-02-19T02:41:35.528Z,13.20
2023-02-19T02:44:02.435Z,13.65
2023-02-19T02:46:35.030Z,13.73
2023-02-19T02:49:12.713Z,14.40
2023-02-19T02:51:43.494Z,14.73
2023-02-19T02:54:51.516Z,15.75
2023-02-19T02:57:21.052Z,15.02
2023-02-19T02:59:52.436Z,14.77
2023-02-19T03:02:28.870Z,15.45
2023-02-19T03:05:36.287Z,15.95
2023-02-19T03:10:39.029Z,16.60
2023-02-19T03:13:28.906Z,15.45
2023-02-19T03:16:25.125Z,16.85
2023-02-19T03:19:12.559Z,14.70
2023-02-19T03:21:43.653Z,16.05
2023-02-19T03:24:31.208Z,14.88
2023-02-19T03:27:01.393Z,15.60
2023-02-19T03:29:43.599Z,14.73
2023-02-19T03:32:37.051Z,14.70
2023-02-19T03:35:13.878Z,15.68
2023-02-19T03:38:12.183Z,14.77
2023-02-19T03:40:52.054Z,14.25
2023-02-19T03:43:44.210Z,16.00
2023-02-19T03:46:29.578Z,14.20
2023-02-19T03:49:06.009Z,14.90
2023-02-19T03:51:43.250Z,13.73
2023-02-19T03:54:32.404Z,14.75
2023-02-19T03:57:04.902Z,13.77
2023-02-19T03:59:34.868Z,15.15
2023-02-19T04:02:25.243Z,15.18
2023-02-19T04:05:02.548Z,14.10
2023-02-19T04:07:35.059Z,15.30
2023-02-19T04:10:03.335Z,15.32
2023-02-19T04:12:31.676Z,14.18
2023-02-19T04:15:04.937Z,15.82
2023-02-19T04:17:37.418Z,15.85
2023-02-19T04:20:08.692Z,16.17
2023-02-19T04:22:37.404Z,14.85
2023-02-19T04:25:05.072Z,16.50
2023-02-19T04:27:32.885Z,15.52
2023-02-19T04:29:59.894Z,16.65
2023-02-19T04:32:26.927Z,15.98
2023-02-19T04:34:54.424Z,16.67
2023-02-19T04:37:21.538Z,16.35
2023-02-19T04:39:48.461Z,16.30
2023-02-19T04:42:15.570Z,16.10
2023-02-19T04:44:42.601Z,17.08
2023-02-19T04:47:09.593Z,17.00
2023-02-19T04:49:36.496Z,17.42
2023-02-19T04:52:03.762Z,16.25
2023-02-19T04:54:30.756Z,17.38
2023-02-19T04:56:57.703Z,16.02
2023-02-19T04:59:24.683Z,17.33
2023-02-19T05:01:51.625Z,17.67
2023-02-19T05:04:18.888Z,17.55
2023-02-19T05:06:45.917Z,17.10
2023-02-19T05:09:12.931Z,16.95
2023-02-19T05:11:40.361Z,16.25
2023-02-19T05:14:07.407Z,17.13
2023-02-19T05:16:53.331Z,16.85
2023-02-19T05:19:20.310Z,18.38
2023-02-19T05:21:47.207Z,16.88
2023-02-19T05:24:14.182Z,17.50
2023-02-19T05:26:41.128Z,16.27
2023-02-19T05:29:08.160Z,17.23
2023-02-19T05:31:35.395Z,16.80
2023-02-19T05:34:03.451Z,16.85
2023-02-19T05:36:30.622Z,17.80
2023-02-19T05:38:58.463Z,16.83
2023-02-19T05:41:27.865Z,16.30
2023-02-19T05:43:55.540Z,16.55
2023-02-19T05:46:24.994Z,17.35
2023-02-19T05:48:52.859Z,15.95
2023-02-19T05:51:22.774Z,16.20
2023-02-19T05:53:50.672Z,16.23
2023-02-19T05:56:29.793Z,15.95
2023-02-19T05:58:57.236Z,15.55
2023-02-19T06:01:27.295Z,15.45
2023-02-19T06:03:57.227Z,15.20
2023-02-19T06:06:25.023Z,16.10
2023-02-19T06:08:52.134Z,17.83
2023-02-19T06:11:19.609Z,16.35
2023-02-19T06:13:46.625Z,15.85
2023-02-19T06:16:13.655Z,15.93
2023-02-19T06:18:41.341Z,15.63
2023-02-19T06:21:10.633Z,15.27
2023-02-19T06:23:38.640Z,15.23
2023-02-19T06:26:10.294Z,15.93
2023-02-19T06:28:37.814Z,15.70
2023-02-19T06:31:06.227Z,16.50
2023-02-19T06:33:33.627Z,16.85
2023-02-19T06:36:02.749Z,15.30
2023-02-19T06:38:30.837Z,15.10
2023-02-19T06:41:02.729Z,15.43
2023-02-19T06:43:30.915Z,15.98
2023-02-19T06:46:02.258Z,17.40
2023-02-19T06:48:30.639Z,16.38
2023-02-19T06:50:57.940Z,15.40
2023-02-19T06:53:25.453Z,16.50
2023-02-19T06:56:00.205Z,15.88
2023-02-19T06:58:28.170Z,16.77
2023-02-19T07:00:55.192Z,16.70
2023-02-19T07:03:22.770Z,16.95
2023-02-19T07:05:50.188Z,16.25
2023-02-19T07:08:17.488Z,16.88
2023-02-19T07:10:45.708Z,15.93
2023-02-19T07:13:12.781Z,17.75
2023-02-19T07:15:39.773Z,17.05
2023-02-19T07:18:10.374Z,16.48
2023-02-19T07:20:37.899Z,17.35
2023-02-19T07:23:04.979Z,16.45
2023-02-19T07:25:32.146Z,17.17
2023-02-19T07:27:59.189Z,16.25
2023-02-19T07:30:26.245Z,17.67
2023-02-19T07:32:53.151Z,16.35
2023-02-19T07:35:20.082Z,16.13
2023-02-19T07:37:47.033Z,16.92
2023-02-19T07:40:13.976Z,16.63
2023-02-19T07:42:41.017Z,16.13
2023-02-19T07:45:08.397Z,17.40
2023-02-19T07:47:35.544Z,18.85
2023-02-19T07:50:02.589Z,17.92
2023-02-19T07:52:29.612Z,17.35
2023-02-19T07:54:56.546Z,19.17
2023-02-19T07:57:23.461Z,20.88
2023-02-19T07:59:51.169Z,19.20
2023-02-19T08:02:38.591Z,20.15
2023-02-19T08:05:07.019Z,20.52
2023-02-19T08:07:37.677Z,20.73
2023-02-19T08:10:24.254Z,22.20
2023-02-19T08:13:19.689Z,21.88
2023-02-19T08:15:47.533Z,22.83
2023-02-19T08:18:16.494Z,23.17
2023-02-19T08:20:44.436Z,22.98
2023-02-19T08:23:12.174Z,23.92
2023-02-19T08:25:40.138Z,22.80
2023-02-19T08:28:08.162Z,24.15
2023-02-19T08:30:35.503Z,22.73
2023-02-19T08:33:02.667Z,25.15
2023-02-19T08:35:29.694Z,23.88
2023-02-19T08:37:59.994Z,22.75
2023-02-19T08:40:27.346Z,25.02
2023-02-19T08:42:54.327Z,24.10
2023-02-19T08:45:21.461Z,24.33
2023-02-19T08:47:48.402Z,23.70
2023-02-19T08:50:15.383Z,23.83
2023-02-19T08:52:42.304Z,24.77
2023-02-19T08:55:09.304Z,26.90
2023-02-19T08:57:40.109Z,24.58
2023-02-19T09:00:08.964Z,26.45
2023-02-19T09:02:36.258Z,25.35
2023-02-19T09:05:03.584Z,25.63
2023-02-19T09:07:30.586Z,26.00
2023-02-19T09:09:58.563Z,23.65
2023-02-19T09:12:25.624Z,27.30
2023-02-19T09:14:52.753Z,26.33
2023-02-19T09:17:19.892Z,25.85
2023-02-19T09:19:47.753Z,25.10
2023-02-19T09:22:15.936Z,25.98
2023-02-19T09:24:43.667Z,24.85
2023-02-19T09:27:15.872Z,24.67
2023-02-19T09:29:42.903Z,24.65
2023-02-19T09:32:11.171Z,25.15
2023-02-19T09:34:39.144Z,24.15
2023-02-19T09:37:06.968Z,24.00
2023-02-19T09:39:35.127Z,22.88
2023-02-19T09:42:10.450Z,22.42
2023-02-19T09:44:40.637Z,23.50
2023-02-19T09:47:20.518Z,23.20
2023-02-19T09:49:52.107Z,23.38
2023-02-19T09:52:28.061Z,23.73
2023-02-19T09:54:59.322Z,24.50
2023-02-19T09:57:29.752Z,23.52
2023-02-19T10:00:12.552Z,23.45
2023-02-19T10:02:39.653Z,23.00
2023-02-19T10:05:13.689Z,23.48
2023-02-19T10:07:45.306Z,22.92
2023-02-19T10:10:15.388Z,22.77
2023-02-19T10:12:53.613Z,23.08
2023-02-19T10:15:36.167Z,20.45
2023-02-19T10:18:05.437Z,20.77
2023-02-19T10:20:33.048Z,21.25
2023-02-19T10:23:12.428Z,20.65
2023-02-19T10:25:45.635Z,18.92
2023-02-19T10:28:19.092Z,16.60
2023-02-19T10:30:53.013Z,14.48
2023-02-19T10:33:20.873Z,13.13
2023-02-19T10:36:06.656Z,13.82
2023-02-19T10:38:45.402Z,12.82
2023-02-19T10:41:14.239Z,13.23
2023-02-19T10:43:50.916Z,12.20
2023-02-19T10:46:47.020Z,10.18
2023-02-19T10:49:30.224Z,11.65
2023-02-19T10:52:02.893Z,9.23
2023-02-19T10:54:32.997Z,10.43
2023-02-19T10:57:15.954Z,10.35
2023-02-19T11:00:19.592Z,10.73
2023-02-19T11:02:46.546Z,11.05
2023-02-19T11:05:16.641Z,9.85
2023-02-19T11:07:57.361Z,9.75
2023-02-19T11:10:36.485Z,10.15
2023-02-19T11:13:05.878Z,9.60
2023-02-19T11:15:35.429Z,10.05
2023-02-19T11:18:15.064Z,8.75
2023-02-19T11:20:49.887Z,9.63
2023-02-19T11:23:25.104Z,9.70
2023-02-19T11:25:54.187Z,10.52
2023-02-19T11:28:41.754Z,9.00
2023-02-19T11:31:31.990Z,8.70
2023-02-19T11:34:26.199Z,9.30
2023-02-19T11:37:14.933Z,9.77
2023-02-19T11:39:50.514Z,8.65
2023-02-19T11:42:49.276Z,8.70
2023-02-19T11:45:28.217Z,8.30
2023-02-19T11:48:36.743Z,9.13
2023-02-19T11:51:15.313Z,8.30
2023-02-19T11:54:11.964Z,7.82
2023-02-19T11:59:31.249Z,8.90
2023-02-19T12:02:14.123Z,9.07
2023-02-19T12:05:02.348Z,9.60
2023-02-19T12:07:38.157Z,8.75
2023-02-19T12:12:56.687Z,8.45
2023-02-19T12:15:43.560Z,9.05
2023-02-19T12:18:25.571Z,8.50
2023-02-19T12:21:21.722Z,8.93
2023-02-19T12:24:06.624Z,8.95
2023-02-19T12:26:45.230Z,8.52
2023-02-19T12:29:21.312Z,7.95
2023-02-19T12:32:16.597Z,7.72
2023-02-19T12:35:28.113Z,8.35
2023-02-19T12:38:22.900Z,8.30
2023-02-19T12:40:59.350Z,7.88
2023-02-19T12:43:26.399Z,8.13
2023-02-19T12:46:24.745Z,7.95
2023-02-19T12:49:10.298Z,8.07
2023-02-19T12:51:37.226Z,8.55
2023-02-19T12:54:12.886Z,8.73
2023-02-19T12:56:46.758Z,8.55
2023-02-19T12:59:26.089Z,7.75
2023-02-19T13:02:24.800Z,8.20
2023-02-19T13:04:58.264Z,8.20
2023-02-19T13:07:58.155Z,8.43
2023-02-19T13:10:33.856Z,8.00
2023-02-19T13:15:44.216Z,8.02
2023-02-19T13:18:20.197Z,7.93
2023-02-19T13:20:48.898Z,8.52
2023-02-19T13:23:54.356Z,8.13
2023-02-19T13:27:02.174Z,8.50
2023-02-19T13:29:44.193Z,8.13
2023-02-19T13:32:23.150Z,7.97
2023-02-19T13:35:11.719Z,7.90
2023-02-19T13:37:38.947Z,9.55
2023-02-19T13:40:24.021Z,7.97
2023-02-19T13:43:06.227Z,8.50
2023-02-19T13:45:38.322Z,8.50
2023-02-19T13:48:26.825Z,8.38
2023-02-19T13:51:12.927Z,8.27
2023-02-19T13:53:44.884Z,10.15
2023-02-19T13:56:30.464Z,8.63
2023-02-19T13:59:15.672Z,10.90
2023-02-19T14:01:54.783Z,10.70
2023-02-19T14:04:24.010Z,11.23
2023-02-19T14:07:03.194Z,10.40
2023-02-19T14:09:36.533Z,10.25
2023-02-19T14:12:16.143Z,9.80
2023-02-19T14:14:47.077Z,9.18
2023-02-19T14:17:33.219Z,8.88
2023-02-19T14:20:24.119Z,9.43
2023-02-19T14:23:01.929Z,9.02
2023-02-19T14:25:31.936Z,9.25
2023-02-19T14:28:21.618Z,8.73
2023-02-19T14:31:10.818Z,9.43
2023-02-19T14:33:43.337Z,8.63
2023-02-19T14:36:22.429Z,8.63
2023-02-19T14:38:56.452Z,8.35
2023-02-19T14:41:24.396Z,7.57
2023-02-19T14:43:55.385Z,8.00
2023-02-19T14:46:31.842Z,8.38
2023-02-19T14:49:17.352Z,7.70
2023-02-19T14:51:49.509Z,7.75
2023-02-19T14:54:27.131Z,7.43
2023-02-19T14:56:54.730Z,7.78
2023-02-19T14:59:26.798Z,7.88
2023-02-19T15:02:13.715Z,7.63
2023-02-19T15:04:40.631Z,7.40
2023-02-19T15:07:10.633Z,7.30
2023-02-19T15:09:41.236Z,8.05
2023-02-19T15:12:14.384Z,7.47
2023-02-19T15:14:41.428Z,7.18
2023-02-19T15:17:08.699Z,7.25
2023-02-19T15:19:39.562Z,7.30
2023-02-19T15:22:07.391Z,6.75
2023-02-19T15:24:34.357Z,7.13
2023-02-19T15:27:01.353Z,7.78
2023-02-19T15:29:28.765Z,8.50
2023-02-19T15:32:00.824Z,7.75
2023-02-19T15:35:02.885Z,7.30
2023-02-19T15:37:33.051Z,7.80
2023-02-19T15:40:05.489Z,7.35
2023-02-19T15:42:34.809Z,7.50
2023-02-19T15:45:20.250Z,8.20
2023-02-19T15:48:16.816Z,7.93
2023-02-19T15:53:42.130Z,8.23
2023-02-19T15:56:20.971Z,7.80
2023-02-19T15:59:00.484Z,8.38
2023-02-19T16:01:40.798Z,8.32
2023-02-19T16:04:14.400Z,8.38
2023-02-19T16:07:02.360Z,8.25
2023-02-19T16:09:33.506Z,7.40
2023-02-19T16:12:01.754Z,8.98
2023-02-19T16:14:34.126Z,8.82
2023-02-19T16:17:09.894Z,8.90
2023-02-19T16:19:48.809Z,8.20
2023-02-19T16:22:22.697Z,9.10
2023-02-19T16:24:52.653Z,9.40
2023-02-19T16:27:41.569Z,8.90
2023-02-19T16:30:17.986Z,8.23
2023-02-19T16:32:46.879Z,9.15
2023-02-19T16:35:41.733Z,9.45
2023-02-19T16:38:14.005Z,9.73
2023-02-19T16:41:05.278Z,10.38
2023-02-19T16:43:43.707Z,10.35
2023-02-19T16:46:12.520Z,9.32
2023-02-19T16:48:39.714Z,8.20
2023-02-19T16:51:08.541Z,10.18
2023-02-19T16:53:35.592Z,10.23
2023-02-19T16:56:02.765Z,11.27
2023-02-19T16:58:29.843Z,13.38
2023-02-19T17:00:57.411Z,9.55
2023-02-19T17:03:25.647Z,12.57
2023-02-19T17:05:53.177Z,11.30
2023-02-19T17:08:29.498Z,11.38
2023-02-19T17:10:56.611Z,8.23
2023-02-19T17:13:23.616Z,8.45
2023-02-19T17:15:50.479Z,9.73
2023-02-19T17:18:18.000Z,12.60
2023-02-19T17:20:54.823Z,11.10
2023-02-19T17:23:23.576Z,11.93
2023-02-19T17:25:51.500Z,9.60
2023-02-19T17:28:18.640Z,8.63
2023-02-19T17:30:45.623Z,8.25
2023-02-19T17:33:12.787Z,12.35
2023-02-19T17:35:40.111Z,9.90
2023-02-19T17:38:09.632Z,9.48
2023-02-19T17:40:37.974Z,11.95
2023-02-19T17:43:05.836Z,14.80
2023-02-19T17:45:33.352Z,10.90
2023-02-19T17:48:00.380Z,14.43
2023-02-19T17:50:30.698Z,9.88
2023-02-19T17:52:58.166Z,9.20
2023-02-19T17:55:25.567Z,11.80
2023-02-19T17:57:52.851Z,14.02
2023-02-19T18:00:22.977Z,16.88
2023-02-19T18:02:50.172Z,14.77
2023-02-19T18:05:17.529Z,12.35
2023-02-19T18:07:45.779Z,10.50
2023-02-19T18:10:13.556Z,10.77
2023-02-19T18:12:40.840Z,10.70
2023-02-19T18:15:09.110Z,12.43
2023-02-19T18:17:36.514Z,12.10
2023-02-19T18:20:04.713Z,12.27
2023-02-19T18:22:32.414Z,14.20
2023-02-19T18:24:59.668Z,13.10
2023-02-19T18:27:26.764Z,12.50
2023-02-19T18:29:55.236Z,10.68
2023-02-19T18:32:23.787Z,11.75
2023-02-19T18:34:52.682Z,15.52
2023-02-19T18:37:20.332Z,13.43
2023-02-19T18:39:47.443Z,11.38
2023-02-19T18:42:15.290Z,12.77
2023-02-19T18:44:42.832Z,10.57
2023-02-19T18:47:11.524Z,13.02
2023-02-19T18:49:38.705Z,14.02
2023-02-19T18:52:06.688Z,11.88
2023-02-19T18:54:33.745Z,12.85
2023-02-19T18:57:01.777Z,12.00
2023-02-19T18:59:28.719Z,11.82
2023-02-19T19:01:56.972Z,11.95
2023-02-19T19:04:24.088Z,11.82
2023-02-19T19:06:51.599Z,13.07
2023-02-19T19:09:18.624Z,12.32
2023-02-19T19:11:46.583Z,13.23
2023-02-19T19:14:13.533Z,12.02
2023-02-19T19:16:40.912Z,13.10
2023-02-19T19:19:08.106Z,13.25
2023-02-19T19:21:35.068Z,12.23
2023-02-19T19:24:02.116Z,13.25
2023-02-19T19:26:29.053Z,13.50
2023-02-19T19:28:56.047Z,12.35
2023-02-19T19:31:24.840Z,11.55
2023-02-19T19:33:52.385Z,12.68
2023-02-19T19:36:21.882Z,12.90
2023-02-19T19:38:49.172Z,15.60
2023-02-19T19:41:18.659Z,13.00
2023-02-19T19:43:45.775Z,12.02
2023-02-19T19:46:18.931Z,12.40
2023-02-19T19:48:50.774Z,13.93
2023-02-19T19:51:18.368Z,12.43
2023-02-19T19:53:49.183Z,13.93
2023-02-19T19:56:17.291Z,14.57
2023-02-19T19:58:44.279Z,14.32
2023-02-19T20:01:11.480Z,13.15
2023-02-19T20:03:39.819Z,15.88
2023-02-19T20:06:07.088Z,14.27
2023-02-19T20:08:34.107Z,14.25
2023-02-19T20:11:02.278Z,15.25
2023-02-19T20:13:31.132Z,14.93
2023-02-19T20:15:58.330Z,13.25
2023-02-19T20:18:26.593Z,14.30
2023-02-19T20:20:53.681Z,13.85
2023-02-19T20:23:20.742Z,14.10
2023-02-19T20:25:47.738Z,13.77
2023-02-19T20:28:14.660Z,14.18
2023-02-19T20:30:43.161Z,14.52
2023-02-19T20:33:10.228Z,14.23
2023-02-19T20:35:37.245Z,14.38
2023-02-19T20:38:04.380Z,14.43
2023-02-19T20:40:32.730Z,14.20
2023-02-19T20:43:01.010Z,15.77
2023-02-19T20:45:28.484Z,15.82
2023-02-19T20:47:55.499Z,15.93
2023-02-19T20:50:23.347Z,17.33
2023-02-19T20:52:50.468Z,18.52
2023-02-19T20:55:17.476Z,19.23
2023-02-19T20:57:44.410Z,18.08
2023-02-19T21:00:12.078Z,17.90
2023-02-19T21:02:39.156Z,18.10
2023-02-19T21:05:06.484Z,17.27
2023-02-19T21:07:33.523Z,17.75
2023-02-19T21:10:00.459Z,17.35
2023-02-19T21:12:27.424Z,18.17
2023-02-19T21:14:54.333Z,19.20
2023-02-19T21:17:21.269Z,18.52
2023-02-19T21:19:50.232Z,18.50
2023-02-19T21:22:17.299Z,19.67
2023-02-19T21:24:44.744Z,20.13
2023-02-19T21:27:11.719Z,23.10
2023-02-19T21:29:38.759Z,26.98
2023-02-19T21:32:06.001Z,27.35
2023-02-19T21:34:33.191Z,28.67
2023-02-19T21:37:00.158Z,30.52
2023-02-19T21:39:28.241Z,32.72
2023-02-19T21:41:55.190Z,34.95
2023-02-19T21:44:22.310Z,35.22
2023-02-19T21:46:49.213Z,35.40
2023-02-19T21:49:16.543Z,37.20
2023-02-19T21:51:45.230Z,37.63
2023-02-19T21:54:21.746Z,40.42
2023-02-19T21:56:48.844Z,42.20
2023-02-19T21:59:15.977Z,43.38
2023-02-19T22:01:43.510Z,43.65
2023-02-19T22:04:15.131Z,46.05
2023-02-19T22:06:42.637Z,45.30
2023-02-19T22:09:10.440Z,46.25
2023-02-19T22:11:37.525Z,44.30
2023-02-19T22:14:04.915Z,47.88
2023-02-19T22:16:32.305Z,46.00
2023-02-19T22:19:00.141Z,45.30
2023-02-19T22:21:32.343Z,48.17
2023-02-19T22:24:01.142Z,47.70
2023-02-19T22:26:33.982Z,48.47
2023-02-19T22:29:05.846Z,47.20
2023-02-19T22:31:34.041Z,50.10
2023-02-19T22:34:01.039Z,50.15
2023-02-19T22:36:33.456Z,48.67
2023-02-19T22:39:01.337Z,48.70
2023-02-19T22:41:29.143Z,48.97
2023-02-19T22:43:57.754Z,48.90
2023-02-19T22:46:26.869Z,48.05
2023-02-19T22:48:53.856Z,49.97
2023-02-19T22:51:23.116Z,49.28
2023-02-19T22:53:55.067Z,49.83
2023-02-19T22:56:24.610Z,49.47
2023-02-19T22:58:52.681Z,49.95
2023-02-19T23:01:20.313Z,48.70
2023-02-19T23:03:49.317Z,50.85
2023-02-19T23:06:17.849Z,48.70
2023-02-19T23:08:44.980Z,48.25
2023-02-19T23:11:13.306Z,49.83
2023-02-19T23:13:43.320Z,48.40
2023-02-19T23:16:10.801Z,46.33
2023-02-19T23:18:38.167Z,50.05
2023-02-19T23:21:05.109Z,48.25
2023-02-19T23:23:32.272Z,48.05
2023-02-19T23:25:59.259Z,49.42
2023-02-19T23:28:26.199Z,49.25
2023-02-19T23:30:53.191Z,48.33
2023-02-19T23:33:20.207Z,48.33
2023-02-19T23:35:47.334Z,47.63
2023-02-19T23:38:14.252Z,48.08
2023-02-19T23:40:41.199Z,48.30
2023-02-19T23:43:08.413Z,50.72
2023-02-19T23:45:35.415Z,48.13
2023-02-19T23:48:02.525Z,46.58
2023-02-19T23:50:29.454Z,49.47
2023-02-19T23:52:58.935Z,49.65
2023-02-19T23:55:26.419Z,47.25
2023-02-19T23:57:53.583Z,47.53
